Time;durP1;ratioP1;P1;durP2;ratioP2;P2;SDS_P1;SDS_P2;PMS_P1;PMS_P2;Temp;Humidity;BMP_temperature;BMP_pressure;BME280_temperature;BME280_humidity;BME280_pressure;Samples;Min_cycle;Max_cycle;Signal;HPM_P1;HPM_P2
2022/12/10 00:02:19;;;;;;;30.40;12.75;;;;;;;4.89;90.23;96003.00;5116764;28;20062;-63
2022/12/10 00:04:46;;;;;;;21.33;9.57;;;;;;;4.92;89.73;96007.28;5116809;28;20069;-62
2022/12/10 00:07:15;;;;;;;27.08;9.30;;;;;;;4.87;89.63;96014.28;5116881;28;20096;-63
2022/12/10 00:09:42;;;;;;;32.25;11.25;;;;;;;4.85;89.40;96014.31;5116783;28;20040;-63
2022/12/10 00:12:09;;;;;;;41.22;12.10;;;;;;;4.74;89.37;96004.22;5116612;28;20055;-62
2022/12/10 00:14:39;;;;;;;32.28;8.70;;;;;;;4.76;89.58;96011.97;5116607;28;20172;-62
2022/12/10 00:17:06;;;;;;;49.30;10.90;;;;;;;4.71;89.35;96013.81;5116559;28;20039;-62
2022/12/10 00:19:34;;;;;;;65.18;12.27;;;;;;;4.63;89.53;96003.59;5116599;28;20104;-61
2022/12/10 00:22:01;;;;;;;57.20;13.52;;;;;;;4.67;91.49;96011.28;5116519;28;20069;-61
2022/12/10 00:24:30;;;;;;;41.78;12.38;;;;;;;4.70;92.50;96004.34;5116408;28;20055;-62
2022/12/10 00:26:57;;;;;;;34.83;10.98;;;;;;;4.67;92.10;96005.25;5116387;28;20047;-61
2022/12/10 00:29:24;;;;;;;27.70;10.43;;;;;;;4.66;91.73;96007.00;5114960;28;20498;-63
2022/12/10 00:31:51;;;;;;;26.90;10.65;;;;;;;4.65;91.41;95999.25;5116281;28;20118;-63
2022/12/10 00:34:18;;;;;;;28.38;10.57;;;;;;;4.71;91.52;96006.03;5116160;28;20044;-63
2022/12/10 00:36:47;;;;;;;24.77;10.68;;;;;;;4.78;91.47;96002.41;5116309;28;20470;-63
2022/12/10 00:39:19;;;;;;;35.20;14.35;;;;;;;4.74;91.17;96000.78;5116120;28;20100;-62
2022/12/10 00:41:48;;;;;;;35.20;12.18;;;;;;;4.78;90.47;95995.50;5115768;28;20055;-63
2022/12/10 00:44:16;;;;;;;35.75;13.05;;;;;;;4.70;90.41;96000.00;5116000;28;20450;-63
2022/12/10 00:46:43;;;;;;;29.50;12.30;;;;;;;4.66;90.72;95990.59;5116063;28;20447;-63
2022/12/10 00:49:11;;;;;;;32.75;12.20;;;;;;;4.66;90.55;95990.59;5115944;28;20130;-62
2022/12/10 00:51:38;;;;;;;24.92;8.48;;;;;;;4.64;89.53;95990.63;5115926;28;20090;-62
2022/12/10 00:54:06;;;;;;;28.20;9.50;;;;;;;4.57;89.72;95991.66;5115835;28;20124;-63
2022/12/10 00:56:34;;;;;;;39.00;11.55;;;;;;;4.54;90.16;96000.34;5115805;28;20047;-63
2022/12/10 00:59:03;;;;;;;28.48;12.65;;;;;;;4.55;89.93;95988.25;5115780;28;20404;-63
2022/12/10 01:01:32;;;;;;;38.25;10.85;;;;;;;4.54;89.62;95996.91;5115686;28;20055;-62
2022/12/10 01:04:02;;;;;;;28.90;11.80;;;;;;;4.50;89.91;95985.78;5115662;28;20073;-62
2022/12/10 01:06:31;;;;;;;23.27;9.30;;;;;;;4.50;89.34;95988.38;5115654;28;20051;-62
2022/12/10 01:09:01;;;;;;;22.92;9.23;;;;;;;4.48;89.68;95981.53;5115642;28;20048;-62
2022/12/10 01:11:30;;;;;;;26.67;10.32;;;;;;;4.47;89.79;95983.25;5115569;28;20043;-62
2022/12/10 01:13:58;;;;;;;28.52;9.32;;;;;;;4.50;88.98;95977.13;5115434;28;20047;-63
2022/12/10 01:16:28;;;;;;;29.27;9.60;;;;;;;4.47;89.33;95975.47;5115353;28;20051;-63
2022/12/10 01:18:55;;;;;;;27.88;9.45;;;;;;;4.49;89.74;95973.69;5115503;28;20199;-62
2022/12/10 01:21:24;;;;;;;29.55;9.88;;;;;;;4.48;89.70;95982.34;5115218;28;20047;-63
2022/12/10 01:23:52;;;;;;;25.30;10.32;;;;;;;4.49;89.84;95978.88;5115255;28;20087;-62
2022/12/10 01:26:21;;;;;;;27.60;11.13;;;;;;;4.48;89.95;95982.34;5115280;28;20048;-63
2022/12/10 01:28:49;;;;;;;23.58;11.05;;;;;;;4.42;90.14;95973.00;5115120;28;20124;-63
2022/12/10 01:31:19;;;;;;;33.40;14.05;;;;;;;4.48;90.05;95973.75;5115159;28;20083;-63
2022/12/10 01:33:49;;;;;;;29.10;12.23;;;;;;;4.42;90.21;95965.22;5115156;28;20051;-62
2022/12/10 01:36:19;;;;;;;27.02;13.52;;;;;;;4.40;90.49;95968.75;5114838;28;20046;-63
2022/12/10 01:38:46;;;;;;;55.05;26.60;;;;;;;4.45;91.50;95968.63;5114960;28;20047;-63
2022/12/10 01:41:16;;;;;;;40.35;21.33;;;;;;;4.52;91.29;95972.78;5114225;28;20047;-62
2022/12/10 01:43:54;;;;;;;45.93;22.10;;;;;;;4.48;91.27;95968.56;5115016;28;20044;-63
2022/12/10 01:46:21;;;;;;;32.92;15.18;;;;;;;4.48;91.55;95972.00;5114745;28;20148;-62
2022/12/10 01:48:51;;;;;;;22.15;9.77;;;;;;;4.55;91.03;95967.53;5114762;28;20473;-63
2022/12/10 01:51:18;;;;;;;23.33;10.15;;;;;;;4.52;90.80;95965.84;5114650;28;20047;-62
2022/12/10 01:53:47;;;;;;;28.60;10.77;;;;;;;4.53;91.19;95966.72;5114659;28;20089;-63
2022/12/10 01:56:16;;;;;;;37.35;13.60;;;;;;;4.59;91.37;95969.16;5114701;28;20112;-62
2022/12/10 01:58:44;;;;;;;27.97;12.17;;;;;;;4.56;91.04;95969.22;5114706;28;20048;-62
2022/12/10 02:01:17;;;;;;;25.42;8.52;;;;;;;4.54;91.59;95958.03;5114614;28;20112;-62
2022/12/10 02:03:58;;;;;;;34.63;13.20;;;;;;;4.52;92.21;95960.66;5114564;28;20055;-61
2022/12/10 02:06:45;;;;;;;31.70;10.48;;;;;;;4.53;92.23;95962.38;5114477;28;20092;-61
2022/12/10 02:09:22;;;;;;;26.58;10.63;;;;;;;4.60;92.70;95955.31;5114458;28;20101;-63
2022/12/10 02:11:59;;;;;;;21.63;7.57;;;;;;;4.63;92.17;95944.88;5114260;28;20066;-63
2022/12/10 02:14:44;;;;;;;21.90;9.55;;;;;;;4.68;92.70;95944.78;5114289;28;20420;-63
2022/12/10 02:17:17;;;;;;;43.15;15.13;;;;;;;4.63;92.66;95944.00;5114194;28;20105;-62
2022/12/10 02:20:14;;;;;;;44.72;22.88;;;;;;;4.61;93.53;95938.03;5114336;28;20047;-62
2022/12/10 02:22:47;;;;;;;43.03;19.70;;;;;;;4.68;93.59;95926.63;5096931;28;20052;-62
2022/12/10 02:25:16;;;;;;;20.25;9.77;;;;;;;4.72;93.18;95930.00;5114153;28;20040;-63
2022/12/10 02:27:51;;;;;;;27.42;8.75;;;;;;;4.71;92.74;95926.56;5114071;28;20075;-62
2022/12/10 02:30:20;;;;;;;16.33;8.43;;;;;;;4.69;92.59;95928.31;5114088;28;20048;-63
2022/12/10 02:32:49;;;;;;;26.35;9.15;;;;;;;4.70;92.64;95930.06;5114096;28;20054;-62
2022/12/10 02:35:25;;;;;;;27.83;9.52;;;;;;;4.74;93.05;95917.84;5114058;28;20055;-62
2022/12/10 02:37:56;;;;;;;19.48;9.30;;;;;;;4.74;93.22;95918.72;5113863;28;20073;-63
2022/12/10 02:40:30;;;;;;;27.98;9.63;;;;;;;4.79;92.79;95914.25;5113772;28;20101;-62
2022/12/10 02:42:57;;;;;;;29.23;11.18;;;;;;;4.85;93.52;95915.00;5113601;28;20489;-63
2022/12/10 02:45:29;;;;;;;24.52;10.27;;;;;;;4.90;93.42;95919.19;5113929;28;20122;-63
2022/12/10 02:48:00;;;;;;;23.65;9.90;;;;;;;4.93;92.34;95919.09;5113659;28;20043;-62
2022/12/10 02:50:27;;;;;;;36.78;10.05;;;;;;;4.90;91.93;95919.19;5113831;28;20044;-62
2022/12/10 02:52:54;;;;;;;41.83;10.75;;;;;;;4.90;91.90;95916.59;5112886;28;20401;-62
2022/12/10 02:55:21;;;;;;;32.00;8.90;;;;;;;4.85;91.09;95907.22;5113650;28;20481;-62
2022/12/10 02:58:02;;;;;;;23.25;8.63;;;;;;;4.72;91.38;95909.28;5113522;28;20079;-63
2022/12/10 03:00:37;;;;;;;81.25;9.77;;;;;;;4.70;91.11;95908.47;5113613;28;20039;-63
2022/12/10 03:03:22;;;;;;;55.63;9.60;;;;;;;4.73;91.03;95917.00;5113456;28;20075;-62
2022/12/10 03:06:01;;;;;;;35.83;10.13;;;;;;;4.75;90.89;95916.94;5113606;28;20047;-63
2022/12/10 03:08:35;;;;;;;30.13;9.88;;;;;;;4.73;90.55;95910.97;5113566;28;20071;-62
2022/12/10 03:11:12;;;;;;;26.23;8.88;;;;;;;4.66;90.94;95916.31;5113403;28;20054;-63
2022/12/10 03:13:45;;;;;;;24.10;7.60;;;;;;;4.61;90.54;95912.97;5113488;28;20069;-63
2022/12/10 03:16:15;;;;;;;24.40;8.73;;;;;;;4.62;90.59;95909.50;5113469;28;20043;-62
2022/12/10 03:18:45;;;;;;;27.73;9.43;;;;;;;4.59;90.51;95894.03;5113443;28;20119;-63
2022/12/10 03:21:14;;;;;;;19.27;7.88;;;;;;;4.52;91.20;95910.63;5113390;28;20061;-62
2022/12/10 03:23:44;;;;;;;32.50;10.80;;;;;;;4.58;90.96;95917.38;5113387;28;20535;-62
2022/12/10 03:26:12;;;;;;;16.65;9.63;;;;;;;4.59;91.14;95917.34;5113377;28;20048;-63
2022/12/10 03:28:43;;;;;;;17.67;7.68;;;;;;;4.64;90.38;95930.19;5113286;28;20071;-62
2022/12/10 03:31:11;;;;;;;;;;;;;;;4.67;90.22;95928.38;5113794;28;20048;-62
2022/12/10 03:33:41;;;;;;;23.92;10.02;;;;;;;4.59;90.45;95919.06;5113301;28;19919;-62
2022/12/10 03:36:09;;;;;;;30.17;14.20;;;;;;;4.52;91.48;95911.44;5113192;28;20058;-63
2022/12/10 03:38:37;;;;;;;24.02;11.02;;;;;;;4.61;92.04;95917.31;5113322;28;20043;-62
2022/12/10 03:41:05;;;;;;;26.95;13.30;;;;;;;4.64;92.45;95902.53;5112924;28;20058;-62
2022/12/10 03:43:32;;;;;;;26.75;8.70;;;;;;;4.73;92.30;95911.81;5113141;28;20065;-63
2022/12/10 03:46:00;;;;;;;22.73;10.88;;;;;;;4.80;92.94;95908.19;5113239;28;20043;-63
2022/12/10 03:48:28;;;;;;;19.52;9.68;;;;;;;4.89;93.30;95904.53;5113108;28;20131;-63
2022/12/10 03:50:57;;;;;;;22.13;11.35;;;;;;;4.97;93.07;95895.69;5113120;28;20389;-63
2022/12/10 03:53:24;;;;;;;27.60;13.35;;;;;;;5.01;93.17;95899.91;5113172;28;20504;-63
2022/12/10 03:59:13;;;;;;;37.92;17.55;;;;;;;5.13;93.57;95884.03;5113222;28;20123;-63
2022/12/10 04:01:41;;;;;;;32.67;14.85;;;;;;;5.20;94.14;95881.28;5112947;28;20075;-62
2022/12/10 04:04:08;;;;;;;23.58;14.13;;;;;;;5.30;94.75;95880.97;5115672;28;20404;-63
2022/12/10 04:06:39;;;;;;;26.92;12.00;;;;;;;5.39;95.29;95886.81;5116785;28;20488;-63
2022/12/10 04:09:07;;;;;;;19.38;13.25;;;;;;;5.48;95.54;95883.09;5116733;28;20489;-63
2022/12/10 04:11:34;;;;;;;25.55;16.05;;;;;;;5.49;95.04;95875.28;5116566;28;20055;-63
2022/12/10 04:16:45;;;;;;;26.17;13.75;;;;;;;5.61;95.87;95876.66;5116699;28;20058;-61
2022/12/10 04:19:14;;;;;;;28.08;16.50;;;;;;;5.69;96.23;95879.06;5116667;28;20071;-63
2022/12/10 04:27:22;;;;;;;32.88;15.00;;;;;;;5.84;95.81;95877.72;5116593;28;20535;-63
2022/12/10 04:29:50;;;;;;;25.08;14.50;;;;;;;5.91;96.13;95878.41;5116348;28;20120;-63
2022/12/10 04:32:18;;;;;;;31.52;14.10;;;;;;;5.96;96.02;95876.50;5116268;28;20150;-62
2022/12/10 04:34:48;;;;;;;26.40;13.57;;;;;;;6.01;95.87;95878.97;5116212;28;20082;-63
2022/12/10 04:37:17;;;;;;;;;;;;;;;6.08;95.97;95877.91;5116653;28;20478;-62
2022/12/10 04:39:45;;;;;;;29.85;13.02;;;;;;;6.03;95.85;95880.63;5116134;28;19924;-63
2022/12/10 04:42:13;;;;;;;29.52;12.05;;;;;;;6.00;95.66;95885.06;5115848;28;20064;-63
2022/12/10 04:44:40;;;;;;;27.60;10.98;;;;;;;6.03;95.73;95884.97;5116083;28;20469;-63
2022/12/10 04:47:09;;;;;;;26.95;13.07;;;;;;;6.01;95.98;95876.38;5116008;28;20443;-63
2022/12/10 04:49:36;;;;;;;32.85;16.08;;;;;;;6.01;96.45;95874.63;5115994;28;20047;-63
2022/12/10 04:52:03;;;;;;;59.28;26.77;;;;;;;6.06;97.35;95884.91;5115921;28;20056;-62
2022/12/10 04:54:32;;;;;;;44.13;25.13;;;;;;;6.13;96.91;95875.16;5115996;28;20439;-63
2022/12/10 04:57:00;;;;;;;34.63;16.75;;;;;;;6.16;97.10;95878.53;5115930;28;20556;-62
2022/12/10 04:59:27;;;;;;;34.33;15.32;;;;;;;6.21;97.27;95882.72;5115768;28;20472;-62
2022/12/10 05:01:54;;;;;;;37.22;17.98;;;;;;;6.27;97.35;95878.22;5115668;28;20558;-63
2022/12/10 05:04:21;;;;;;;35.17;17.30;;;;;;;6.28;97.35;95881.63;5115649;28;20130;-62
2022/12/10 05:06:50;;;;;;;25.65;14.13;;;;;;;6.33;97.07;95877.16;5115726;28;20086;-63
2022/12/10 05:09:17;;;;;;;40.50;13.43;;;;;;;6.37;97.19;95880.50;5115692;28;20055;-63
2022/12/10 05:11:46;;;;;;;29.65;13.80;;;;;;;6.42;97.01;95882.03;5115583;28;20139;-63
2022/12/10 05:14:14;;;;;;;28.20;13.02;;;;;;;6.49;96.82;95889.66;5115108;28;20108;-63
2022/12/10 05:16:42;;;;;;;25.35;12.18;;;;;;;6.48;96.65;95894.00;5115256;28;20122;-63
2022/12/10 05:19:11;;;;;;;27.58;13.10;;;;;;;6.54;97.08;95888.59;5115512;28;20055;-63
2022/12/10 05:24:23;;;;;;;26.67;13.30;;;;;;;6.65;97.40;95892.63;5115506;28;20054;-63
2022/12/10 05:26:54;;;;;;;34.92;14.45;;;;;;;6.69;97.55;95886.41;5115314;28;20052;-63
2022/12/10 05:29:22;;;;;;;28.25;13.77;;;;;;;6.73;97.30;95894.94;5115303;28;20088;-63
2022/12/10 05:31:49;;;;;;;36.25;13.77;;;;;;;6.75;97.21;95894.03;5115191;28;20050;-63
2022/12/10 05:34:16;;;;;;;28.65;12.80;;;;;;;6.78;96.77;95886.13;5115049;28;20100;-62
2022/12/10 05:36:43;;;;;;;32.63;11.40;;;;;;;6.80;96.66;95875.63;5115107;28;20044;-63
2022/12/10 05:39:11;;;;;;;31.92;13.63;;;;;;;6.80;96.52;95879.09;5115042;28;20046;-63
2022/12/10 05:41:41;;;;;;;26.38;12.45;;;;;;;6.86;96.64;95887.59;5114685;28;20052;-63
2022/12/10 05:44:10;;;;;;;25.85;12.43;;;;;;;6.88;96.39;95884.03;5114988;28;20070;-62
2022/12/10 05:46:38;;;;;;;27.83;11.00;;;;;;;6.89;96.54;95877.94;5114995;28;20494;-63
2022/12/10 05:49:07;;;;;;;24.40;10.93;;;;;;;6.92;96.83;95875.22;5115014;28;20067;-63
2022/12/10 05:51:37;;;;;;;31.75;12.02;;;;;;;6.95;97.13;95874.28;5114826;28;20047;-63
2022/12/10 05:54:05;;;;;;;23.98;11.02;;;;;;;6.99;96.80;95875.03;5114773;28;20489;-63
2022/12/10 05:56:33;;;;;;;23.38;11.05;;;;;;;7.06;97.16;95873.91;5114698;28;20055;-62
2022/12/10 05:59:03;;;;;;;37.10;13.30;;;;;;;7.08;97.69;95870.34;5114632;28;20134;-63
2022/12/10 06:01:33;;;;;;;40.45;11.52;;;;;;;7.11;97.04;95886.75;5114674;28;20412;-63
2022/12/10 06:04:02;;;;;;;29.25;13.38;;;;;;;7.11;96.51;95884.16;5114513;28;20060;-63
2022/12/10 06:06:31;;;;;;;37.03;13.45;;;;;;;7.10;96.24;95874.66;5114551;28;20467;-63
2022/12/10 06:08:59;;;;;;;36.22;15.80;;;;;;;7.12;95.61;95880.66;5114397;28;20070;-63
2022/12/10 06:11:29;;;;;;;39.88;16.35;;;;;;;7.15;95.57;95881.41;5114289;28;20126;-62
2022/12/10 06:13:59;;;;;;;40.50;17.98;;;;;;;7.15;95.13;95871.00;5114332;28;20127;-61
2022/12/10 06:16:27;;;;;;;43.03;18.50;;;;;;;7.17;95.02;95879.59;5114141;28;20083;-63
2022/12/10 06:18:58;;;;;;;25.50;13.68;;;;;;;7.18;94.91;95875.25;5114309;28;20100;-63
2022/12/10 06:21:26;;;;;;;42.22;15.38;;;;;;;7.18;94.73;95881.31;5114196;28;20127;-62
2022/12/10 06:23:54;;;;;;;44.58;18.58;;;;;;;7.13;94.97;95882.38;5114022;28;20152;-63
2022/12/10 06:26:24;;;;;;;41.65;20.15;;;;;;;7.09;95.43;95873.81;5114150;28;20096;-63
2022/12/10 06:28:52;;;;;;;84.50;18.48;;;;;;;7.15;95.55;95878.81;5114136;28;20052;-63
2022/12/10 06:31:20;;;;;;;74.82;19.65;;;;;;;7.18;95.13;95873.50;5114020;28;20079;-62
2022/12/10 06:33:48;;;;;;;40.00;17.80;;;;;;;7.24;95.24;95871.56;5113997;28;20052;-63
2022/12/10 06:36:18;;;;;;;33.45;17.17;;;;;;;7.35;96.17;95868.59;5114033;28;20047;-64
2022/12/10 06:38:46;;;;;;;25.65;13.23;;;;;;;7.45;96.52;95869.94;5113796;28;20040;-63
2022/12/10 06:41:15;;;;;;;36.45;17.02;;;;;;;7.57;97.11;95866.06;5113546;28;20476;-63
2022/12/10 06:43:43;;;;;;;34.58;15.20;;;;;;;7.63;96.44;95858.03;5113763;28;20051;-63
2022/12/10 06:46:12;;;;;;;24.52;11.55;;;;;;;7.65;96.44;95863.19;5113799;28;20433;-63
2022/12/10 06:48:40;;;;;;;28.65;11.43;;;;;;;7.69;96.58;95860.41;5113801;28;20500;-63
2022/12/10 06:51:09;;;;;;;19.85;10.68;;;;;;;7.77;97.17;95862.69;5113757;28;20079;-63
2022/12/10 06:53:43;;;;;;;43.45;16.85;;;;;;;7.88;97.53;95849.28;5113708;28;20122;-63
2022/12/10 06:56:14;;;;;;;40.65;19.10;;;;;;;7.99;97.74;95851.47;5113677;28;20131;-63
2022/12/10 06:58:43;;;;;;;58.40;22.60;;;;;;;8.11;98.09;95850.16;5113696;28;20043;-63
2022/12/10 07:01:13;;;;;;;35.50;13.90;;;;;;;8.23;97.98;95854.03;5113730;28;20493;-63
2022/12/10 07:03:41;;;;;;;30.60;11.93;;;;;;;8.36;98.20;95856.16;5113453;28;20104;-63
2022/12/10 07:06:10;;;;;;;21.67;10.85;;;;;;;8.43;98.67;95852.38;5113585;28;20059;-63
2022/12/10 07:08:39;;;;;;;33.83;11.25;;;;;;;8.58;98.95;95856.16;5113440;28;20050;-63
2022/12/10 07:11:08;;;;;;;26.92;13.13;;;;;;;8.69;99.14;95855.69;5113517;28;20108;-63
2022/12/10 07:13:36;;;;;;;31.35;13.70;;;;;;;8.79;98.54;95857.00;5113506;28;20047;-62
2022/12/10 07:16:12;;;;;;;34.72;15.15;;;;;;;8.95;98.40;95853.78;5113306;28;20043;-62
2022/12/10 07:18:45;;;;;;;40.85;20.05;;;;;;;9.11;98.03;95859.19;5113480;28;20047;-62
2022/12/10 07:21:25;;;;;;;36.47;18.73;;;;;;;9.25;97.58;95857.72;5113534;28;20444;-62
2022/12/10 07:24:06;;;;;;;32.60;17.48;;;;;;;9.35;96.04;95866.84;5113211;28;20054;-62
2022/12/10 07:26:36;;;;;;;26.83;12.55;;;;;;;9.34;95.22;95866.00;5113289;28;20176;-62
2022/12/10 07:29:12;;;;;;;15.05;9.32;;;;;;;9.42;94.38;95872.66;5113419;28;20142;-62
2022/12/10 07:31:39;;;;;;;22.40;12.43;;;;;;;9.42;94.34;95865.66;5113037;28;20052;-63
2022/12/10 07:34:16;;;;;;;27.30;11.57;;;;;;;9.48;93.74;95869.75;5113351;28;20052;-63
2022/12/10 07:36:48;;;;;;;23.20;12.30;;;;;;;9.57;93.23;95847.66;5113239;28;20126;-62
2022/12/10 07:39:19;;;;;;;23.60;12.95;;;;;;;9.64;93.15;95853.41;5115242;28;20043;-63
2022/12/10 07:41:51;;;;;;;26.02;14.65;;;;;;;9.70;92.95;95853.97;5117133;28;20108;-63
2022/12/10 07:44:20;;;;;;;24.70;14.77;;;;;;;9.80;92.63;95853.56;5117136;28;20047;-63
2022/12/10 07:46:49;;;;;;;32.63;15.60;;;;;;;9.85;92.77;95854.22;5117209;28;20404;-63
2022/12/10 07:49:17;;;;;;;29.42;15.15;;;;;;;9.83;94.45;95850.81;5117243;28;20077;-63
2022/12/10 07:51:46;;;;;;;30.92;14.38;;;;;;;9.82;93.71;95849.94;5116967;28;20096;-63
2022/12/10 07:54:15;;;;;;;29.15;14.43;;;;;;;9.83;93.19;95851.66;5117022;28;20051;-62
2022/12/10 07:56:48;;;;;;;26.23;14.52;;;;;;;9.88;93.46;95853.22;5116984;28;20039;-63
2022/12/10 07:59:16;;;;;;;27.63;14.77;;;;;;;9.96;93.43;95851.09;5117005;28;20055;-63
2022/12/10 08:01:47;;;;;;;27.83;15.38;;;;;;;10.02;93.45;95849.97;5117116;28;20500;-63
2022/12/10 08:04:23;;;;;;;27.33;14.95;;;;;;;10.06;93.40;95854.97;5116657;28;20075;-63
2022/12/10 08:06:59;;;;;;;26.27;14.55;;;;;;;10.12;93.34;95848.63;5116839;28;20052;-63
2022/12/10 08:09:31;;;;;;;29.05;13.50;;;;;;;10.22;93.21;95843.78;5116740;28;20047;-63
2022/12/10 08:12:01;;;;;;;32.90;14.27;;;;;;;10.29;93.63;95842.56;5116750;28;20043;-63
2022/12/10 08:14:30;;;;;;;29.48;13.48;;;;;;;10.36;93.96;95833.50;5116608;28;20071;-63
2022/12/10 08:16:58;;;;;;;30.75;14.30;;;;;;;10.49;93.94;95830.34;5116528;28;20497;-63
2022/12/10 08:19:26;;;;;;;27.70;13.40;;;;;;;10.59;93.58;95828.97;5116506;28;20039;-63
2022/12/10 08:21:54;;;;;;;30.27;15.13;;;;;;;10.67;93.52;95830.34;5116516;28;20047;-63
2022/12/10 08:24:22;;;;;;;30.73;14.55;;;;;;;10.76;93.81;95837.75;5116505;28;20051;-63
2022/12/10 08:26:49;;;;;;;30.65;13.35;;;;;;;10.83;93.94;95833.88;5116407;28;20051;-63
2022/12/10 08:29:19;;;;;;;26.83;13.13;;;;;;;10.96;93.53;95844.56;5116209;28;20500;-63
2022/12/10 08:31:46;;;;;;;31.42;14.70;;;;;;;11.10;93.47;95837.78;5116449;28;20390;-63
2022/12/10 08:34:17;;;;;;;27.45;12.30;;;;;;;11.28;92.68;95837.75;5116260;28;20047;-63
2022/12/10 08:36:50;;;;;;;23.30;11.85;;;;;;;11.40;91.68;95837.13;5116209;28;20104;-63
2022/12/10 08:39:19;;;;;;;26.13;10.80;;;;;;;11.47;90.38;95837.66;5116069;28;20051;-64
2022/12/10 08:41:47;;;;;;;24.80;11.55;;;;;;;11.55;90.48;95830.22;5115984;28;20501;-64
2022/12/10 08:44:17;;;;;;;31.15;11.63;;;;;;;12.04;90.95;95825.88;5115907;28;20051;-63
2022/12/10 08:46:47;;;;;;;25.80;10.60;;;;;;;12.86;85.60;95830.91;5115981;28;20126;-64
2022/12/10 08:49:20;;;;;;;15.63;8.07;;;;;;;13.62;83.92;95832.63;5115206;28;20556;-64
2022/12/10 08:51:47;;;;;;;15.35;8.90;;;;;;;14.27;78.98;95827.75;5115879;28;20287;-61
2022/12/10 08:54:15;;;;;;;26.55;9.13;;;;;;;15.02;73.31;95821.13;5115837;28;20100;-61
2022/12/10 08:56:43;;;;;;;14.13;8.23;;;;;;;15.65;70.24;95816.88;5115742;28;20059;-62
2022/12/10 08:59:13;;;;;;;20.90;8.55;;;;;;;15.96;69.35;95812.13;5115821;28;20047;-65
2022/12/10 09:01:50;;;;;;;16.52;8.30;;;;;;;16.05;69.51;95810.63;5115848;28;20040;-62
2022/12/10 09:04:24;;;;;;;12.32;7.28;;;;;;;15.97;70.48;95815.59;5115556;28;20055;-64
2022/12/10 09:06:52;;;;;;;22.08;8.30;;;;;;;15.91;70.43;95801.03;5115075;28;20090;-64
2022/12/10 09:09:20;;;;;;;18.42;7.65;;;;;;;15.86;70.42;95796.06;5115744;28;20048;-64
2022/12/10 09:11:48;;;;;;;15.13;6.97;;;;;;;15.88;70.60;95793.31;5115494;28;20043;-64
2022/12/10 09:14:20;;;;;;;26.98;6.75;;;;;;;15.90;69.25;95794.91;5115601;28;20084;-64
2022/12/10 09:16:52;;;;;;;14.60;6.18;;;;;;;15.94;67.82;95779.72;5115464;28;20173;-64
2022/12/10 09:19:19;;;;;;;21.20;6.75;;;;;;;15.97;68.27;95782.16;5115431;28;20051;-63
2022/12/10 09:21:47;;;;;;;18.27;7.13;;;;;;;15.83;68.42;95779.66;5115431;28;20051;-64
2022/12/10 09:24:14;;;;;;;18.10;6.40;;;;;;;15.60;68.58;95771.56;5115137;28;20509;-63
2022/12/10 09:26:41;;;;;;;19.70;6.15;;;;;;;15.48;68.79;95770.66;5115205;28;20040;-64
2022/12/10 09:29:10;;;;;;;20.42;7.38;;;;;;;15.37;68.95;95752.94;5115170;28;20051;-63
2022/12/10 09:31:39;;;;;;;17.88;5.70;;;;;;;15.23;69.58;95752.09;5115182;28;20044;-62
2022/12/10 09:34:09;;;;;;;24.60;7.00;;;;;;;15.15;69.97;95767.63;5115147;28;20477;-64
2022/12/10 09:36:37;;;;;;;23.95;8.05;;;;;;;15.09;70.65;95758.34;5115175;28;20050;-63
2022/12/10 09:39:05;;;;;;;20.48;7.68;;;;;;;15.01;72.00;95747.47;5114927;28;20043;-64
2022/12/10 09:41:53;;;;;;;20.10;8.00;;;;;;;14.89;72.89;95747.38;5114792;28;20116;-64
2022/12/10 09:44:32;;;;;;;32.53;8.73;;;;;;;14.93;74.00;95749.81;5114705;28;20091;-64
2022/12/10 09:47:03;;;;;;;21.70;7.70;;;;;;;15.03;73.46;95727.16;5114890;28;20083;-64
2022/12/10 09:49:50;;;;;;;18.60;6.80;;;;;;;15.14;71.83;95723.81;5114852;28;20044;-64
2022/12/10 09:52:20;;;;;;;17.77;5.43;;;;;;;15.02;70.59;95723.69;5114638;28;20131;-64
2022/12/10 09:54:54;;;;;;;16.15;6.10;;;;;;;15.22;70.72;95712.69;5114646;28;20047;-64
2022/12/10 09:57:27;;;;;;;18.52;6.82;;;;;;;15.36;70.49;95709.97;5114633;28;20047;-64
2022/12/10 09:59:57;;;;;;;22.65;6.13;;;;;;;15.50;69.82;95708.97;5114668;28;20123;-64
2022/12/10 10:02:27;;;;;;;15.32;5.60;;;;;;;15.51;67.64;95708.00;5114273;28;20108;-63
2022/12/10 10:05:04;;;;;;;17.95;5.57;;;;;;;15.56;66.21;95704.22;5114441;28;20104;-64
2022/12/10 10:07:34;;;;;;;11.43;6.10;;;;;;;15.70;66.39;95701.44;5114543;28;20386;-64
2022/12/10 10:10:05;;;;;;;14.32;6.10;;;;;;;15.88;66.49;95699.25;5114482;28;20083;-64
2022/12/10 10:12:35;;;;;;;18.88;5.57;;;;;;;15.93;66.20;95685.75;5114443;28;20477;-64
2022/12/10 10:15:14;;;;;;;16.58;6.55;;;;;;;16.03;66.22;95681.50;5114436;28;20382;-64
2022/12/10 10:17:46;;;;;;;15.05;5.63;;;;;;;16.23;65.75;95678.34;5114323;28;20043;-63
2022/12/10 10:20:17;;;;;;;21.73;6.13;;;;;;;16.32;65.24;95676.81;5114228;28;20044;-64
2022/12/10 10:22:48;;;;;;;17.65;6.25;;;;;;;16.44;64.76;95667.13;5114189;28;20047;-64
2022/12/10 10:25:19;;;;;;;17.33;6.18;;;;;;;16.49;65.48;95667.59;5114010;28;20134;-64
2022/12/10 10:27:49;;;;;;;22.83;7.13;;;;;;;16.57;66.07;95667.88;5114119;28;20130;-64
2022/12/10 10:30:19;;;;;;;22.90;8.98;;;;;;;16.61;62.94;95666.66;5114129;28;20048;-64
2022/12/10 10:32:52;;;;;;;25.83;8.38;;;;;;;16.52;65.00;95660.28;5114044;28;20059;-64
2022/12/10 10:35:32;;;;;;;18.85;7.45;;;;;;;16.52;65.71;95662.94;5114140;28;20118;-64
2022/12/10 10:38:02;;;;;;;30.47;8.60;;;;;;;16.64;65.79;95661.16;5113799;28;20142;-64
2022/12/10 10:40:34;;;;;;;32.70;8.80;;;;;;;16.61;65.67;95647.34;5113888;28;20554;-64
2022/12/10 10:43:03;;;;;;;23.17;9.43;;;;;;;16.63;65.45;95651.56;5113654;28;20513;-64
2022/12/10 10:45:37;;;;;;;24.45;9.30;;;;;;;16.63;63.04;95641.00;5113709;28;20108;-64
2022/12/10 10:48:12;;;;;;;22.73;8.77;;;;;;;16.52;63.21;95633.91;5113840;28;20415;-64
2022/12/10 10:50:45;;;;;;;21.90;8.20;;;;;;;16.52;65.29;95636.53;5113485;28;20043;-64
2022/12/10 10:53:31;;;;;;;20.52;8.18;;;;;;;16.55;63.48;95635.47;5113596;28;20048;-64
2022/12/10 10:56:08;;;;;;;16.75;6.60;;;;;;;16.53;63.88;95626.84;5113740;28;20125;-64
2022/12/10 10:58:37;;;;;;;16.95;6.25;;;;;;;16.57;63.50;95630.91;5113499;28;20054;-64
2022/12/10 11:01:07;;;;;;;18.33;7.50;;;;;;;16.57;63.83;95630.91;5113694;28;20047;-64
2022/12/10 11:03:38;;;;;;;21.83;7.90;;;;;;;16.59;63.12;95634.28;5113419;28;20039;-64
2022/12/10 11:06:09;;;;;;;17.10;7.53;;;;;;;16.60;63.19;95629.81;5113711;28;20397;-64
2022/12/10 11:08:39;;;;;;;21.20;6.50;;;;;;;16.53;62.07;95626.84;5113570;28;20051;-64
2022/12/10 11:11:13;;;;;;;14.77;5.22;;;;;;;16.52;61.16;95619.84;5113646;28;20118;-64
2022/12/10 11:13:41;;;;;;;15.80;7.20;;;;;;;16.61;62.34;95619.16;5112883;28;20119;-64
2022/12/10 11:16:18;;;;;;;22.45;8.18;;;;;;;16.63;61.96;95621.69;5113654;28;20123;-64
2022/12/10 11:18:56;;;;;;;18.95;7.57;;;;;;;16.61;61.84;95616.50;5113453;28;20417;-64
2022/12/10 11:21:38;;;;;;;15.38;6.50;;;;;;;16.44;60.77;95612.53;5112793;28;20040;-64
2022/12/10 11:24:18;;;;;;;19.17;6.95;;;;;;;16.40;60.00;95605.81;5111966;28;20047;-64
2022/12/10 11:27:15;;;;;;;15.40;6.40;;;;;;;16.47;61.55;95606.19;5113342;28;20047;-64
2022/12/10 11:30:04;;;;;;;14.18;6.28;;;;;;;16.49;60.29;95599.81;5113288;28;20096;-64
2022/12/10 11:32:56;;;;;;;15.35;6.20;;;;;;;16.52;61.26;95599.59;5113196;28;20075;-64
2022/12/10 11:35:42;;;;;;;19.00;5.40;;;;;;;16.51;61.14;95599.69;5113264;28;20047;-64
2022/12/10 11:38:29;;;;;;;19.33;6.93;;;;;;;16.49;61.13;95599.81;5113101;28;20077;-64
2022/12/10 11:41:13;;;;;;;18.25;5.22;;;;;;;16.46;60.58;95599.22;5112811;28;20473;-64
2022/12/10 11:44:15;;;;;;;14.98;5.57;;;;;;;16.47;59.98;95591.19;5113152;28;20405;-64
2022/12/10 11:47:33;;;;;;;15.02;4.85;;;;;;;16.46;59.46;95594.78;5113127;28;20077;-64
2022/12/10 11:50:22;;;;;;;14.40;5.55;;;;;;;16.45;59.50;95597.53;5071644;28;20082;-64
2022/12/10 11:56:16;;;;;;;15.00;6.50;;;;;;;16.40;60.12;95601.38;5109054;28;20062;-64
2022/12/10 11:59:00;;;;;;;13.48;6.72;;;;;;;16.39;61.41;95599.69;5112200;28;20489;-64
2022/12/10 12:01:44;;;;;;;19.33;6.50;;;;;;;16.41;61.66;95581.13;5112993;28;20126;-64
2022/12/10 12:04:45;;;;;;;16.58;6.78;;;;;;;16.38;61.63;95578.72;5112932;28;20112;-64